Time;durP1;ratioP1;P1;durP2;ratioP2;P2;SDS_P1;SDS_P2;PMS_P1;PMS_P2;Temp;Humidity;BMP_temperature;BMP_pressure;BME280_temperature;BME280_humidity;BME280_pressure;Samples;Min_cycle;Max_cycle;Signal;HPM_P1;HPM_P2
2022/05/23 00:02:33;;;;;;;8.40;4.28;;;29.30;44.50;;;;;;7714091;23;20400;-71
2022/05/23 00:05:34;;;;;;;9.65;4.30;;;29.20;44.80;;;;;;7687186;23;20017;-71
2022/05/23 00:08:35;;;;;;;12.07;4.10;;;29.10;45.10;;;;;;7713792;23;20024;-71
2022/05/23 00:11:36;;;;;;;7.97;4.40;;;28.90;45.20;;;;;;7714049;23;20059;-72
2022/05/23 00:14:37;;;;;;;10.52;4.30;;;28.80;45.30;;;;;;7687032;23;20447;-70
2022/05/23 00:17:38;;;;;;;7.40;4.30;;;28.80;45.50;;;;;;7713341;23;20420;-71
2022/05/23 00:20:39;;;;;;;16.88;4.03;;;28.70;45.60;;;;;;7713631;23;20024;-71
2022/05/23 00:23:40;;;;;;;13.35;4.78;;;28.70;45.90;;;;;;7713724;23;20027;-71
2022/05/23 00:26:43;;;;;;;14.23;4.50;;;28.60;46.10;;;;;;7712876;23;20035;-71
2022/05/23 00:29:44;;;;;;;13.43;4.60;;;28.50;46.40;;;;;;7687558;23;20008;-72
2022/05/23 00:36:05;;;;;;;8.55;5.07;;;28.40;46.90;;;;;;7710740;23;20321;-72
2022/05/23 00:39:06;;;;;;;11.63;4.75;;;28.30;47.40;;;;;;7685099;23;20427;-71
2022/05/23 00:45:34;;;;;;;14.43;4.95;;;28.10;48.10;;;;;;7709739;23;20039;-71
2022/05/23 00:48:35;;;;;;;14.68;4.75;;;27.90;48.30;;;;;;7685310;23;20027;-71
2022/05/23 00:51:36;;;;;;;10.43;5.05;;;27.90;48.50;;;;;;7685324;23;20012;-71
2022/05/23 00:54:43;;;;;;;14.48;5.35;;;27.80;48.60;;;;;;7685606;23;20024;-71
2022/05/23 00:57:47;;;;;;;15.52;4.95;;;27.80;48.70;;;;;;7660946;23;20028;-72
2022/05/23 01:00:51;;;;;;;15.30;4.80;;;27.80;48.90;;;;;;7661672;23;20031;-71
2022/05/23 01:03:52;;;;;;;14.10;5.10;;;27.70;48.90;;;;;;7684699;23;20424;-71
2022/05/23 01:06:54;;;;;;;15.85;5.00;;;27.70;49.00;;;;;;7660827;23;20016;-71
2022/05/23 01:09:55;;;;;;;10.40;4.90;;;27.60;49.00;;;;;;7685039;23;20026;-72
2022/05/23 01:12:56;;;;;;;9.43;4.22;;;27.70;49.10;;;;;;7684448;23;20040;-71
2022/05/23 01:15:57;;;;;;;13.77;4.78;;;27.70;49.00;;;;;;7671225;23;20088;-71
2022/05/23 01:19:01;;;;;;;9.35;4.53;;;27.80;49.00;;;;;;7684177;23;20023;-72
2022/05/23 01:22:13;;;;;;;13.18;4.25;;;27.70;49.00;;;;;;7684991;23;20000;-71
2022/05/23 01:25:34;;;;;;;14.38;4.70;;;27.70;49.00;;;;;;7687209;23;20012;-71
2022/05/23 01:28:38;;;;;;;14.35;5.05;;;27.70;49.10;;;;;;7686866;23;20024;-71
2022/05/23 01:31:42;;;;;;;7.38;4.07;;;27.70;49.00;;;;;;7687043;23;20104;-71
2022/05/23 01:34:55;;;;;;;11.23;4.43;;;27.70;49.20;;;;;;7687667;23;20013;-71
2022/05/23 01:37:57;;;;;;;10.25;4.47;;;27.60;49.40;;;;;;7687487;23;20051;-72
2022/05/23 01:41:19;;;;;;;18.77;4.95;;;27.50;49.40;;;;;;7686974;23;20051;-71
2022/05/23 01:44:28;;;;;;;13.10;4.35;;;27.50;49.50;;;;;;7663906;23;20016;-71
2022/05/23 01:47:40;;;;;;;10.98;4.35;;;27.40;49.50;;;;;;7666229;23;20095;-72
2022/05/23 01:50:41;;;;;;;13.70;4.38;;;27.30;49.50;;;;;;7714797;23;20070;-71
2022/05/23 01:53:45;;;;;;;9.38;4.07;;;27.20;49.60;;;;;;7688955;23;20013;-71
2022/05/23 01:56:46;;;;;;;11.07;4.15;;;27.20;49.70;;;;;;7715439;23;20020;-71
2022/05/23 02:03:15;;;;;;;8.02;3.90;;;27.00;49.90;;;;;;7714994;23;20020;-71
2022/05/23 02:06:18;;;;;;;12.25;3.67;;;26.90;50.00;;;;;;7664305;23;20016;-71
2022/05/23 02:09:26;;;;;;;10.40;4.28;;;26.80;50.10;;;;;;7688958;23;20025;-71
2022/05/23 02:12:38;;;;;;;10.35;4.22;;;26.80;50.30;;;;;;7666480;23;20016;-71
2022/05/23 02:15:44;;;;;;;16.60;4.10;;;26.80;50.40;;;;;;7664792;23;20092;-71
2022/05/23 02:18:48;;;;;;;10.65;4.45;;;26.80;50.50;;;;;;7689417;23;20021;-71
2022/05/23 02:21:50;;;;;;;8.50;4.20;;;26.70;50.50;;;;;;7714725;23;20031;-71
2022/05/23 02:24:51;;;;;;;12.25;4.28;;;26.70;50.70;;;;;;7687930;23;20078;-70
2022/05/23 02:27:53;;;;;;;12.75;4.38;;;26.60;51.00;;;;;;7688831;23;20013;-70
2022/05/23 02:30:54;;;;;;;20.00;4.80;;;26.60;51.10;;;;;;7688825;23;20008;-70
2022/05/23 02:34:17;;;;;;;10.63;4.10;;;26.50;51.30;;;;;;7688383;23;20305;-71
2022/05/23 02:37:22;;;;;;;11.18;4.15;;;26.40;51.40;;;;;;7663946;23;20047;-70
2022/05/23 02:40:28;;;;;;;10.93;4.28;;;26.40;51.50;;;;;;7665068;23;20042;-72
2022/05/23 02:43:30;;;;;;;14.18;4.93;;;26.40;51.50;;;;;;7688841;23;20012;-72
2022/05/23 02:46:32;;;;;;;15.05;4.55;;;26.40;51.40;;;;;;7687719;23;20016;-71
2022/05/23 02:49:38;;;;;;;9.50;4.20;;;26.40;51.60;;;;;;7688749;23;20020;-72
2022/05/23 02:52:41;;;;;;;14.15;5.28;;;26.30;51.70;;;;;;7687467;23;20013;-71
2022/05/23 02:55:52;;;;;;;11.55;4.40;;;26.30;52.20;;;;;;7665450;23;20013;-71
2022/05/23 02:58:53;;;;;;;9.95;4.90;;;26.30;52.40;;;;;;7714277;23;20016;-70
2022/05/23 03:05:16;;;;;;;10.07;4.75;;;26.10;52.90;;;;;;7684992;23;20082;-71
2022/05/23 03:08:25;;;;;;;15.82;5.40;;;26.00;53.50;;;;;;7686947;23;20048;-72
2022/05/23 03:11:26;;;;;;;11.43;4.88;;;25.80;53.90;;;;;;7687247;23;20036;-70
2022/05/23 03:14:28;;;;;;;12.02;4.95;;;25.70;54.30;;;;;;7712387;23;20084;-70
2022/05/23 03:17:31;;;;;;;11.27;4.70;;;25.70;54.50;;;;;;7686839;23;20028;-71
2022/05/23 03:20:32;;;;;;;24.70;5.30;;;25.70;54.70;;;;;;7686323;23;20017;-72
2022/05/23 03:26:59;;;;;;;21.10;4.60;;;25.70;54.80;;;;;;7683630;23;20112;-71
2022/05/23 03:30:05;;;;;;;12.05;5.45;;;25.70;54.90;;;;;;7684592;23;20083;-71
2022/05/23 03:33:17;;;;;;;11.30;5.15;;;25.60;55.10;;;;;;7683268;23;20055;-71
2022/05/23 03:36:18;;;;;;;16.58;5.78;;;25.50;55.40;;;;;;7684652;23;20021;-70
2022/05/23 03:39:19;;;;;;;8.90;5.15;;;25.40;55.60;;;;;;7710723;23;20017;-71
2022/05/23 03:42:20;;;;;;;15.98;5.97;;;25.40;55.90;;;;;;7684205;23;20023;-71
2022/05/23 03:45:27;;;;;;;10.55;5.78;;;25.30;56.20;;;;;;7684043;23;20016;-70
2022/05/23 03:48:27;;;;;;;14.05;5.93;;;25.30;56.40;;;;;;7684224;23;20423;-70
2022/05/23 03:51:28;;;;;;;14.00;4.88;;;25.20;56.50;;;;;;7683450;23;20012;-71
2022/05/23 03:54:31;;;;;;;12.00;5.85;;;25.10;56.60;;;;;;7683583;23;20017;-71
2022/05/23 03:57:32;;;;;;;16.83;6.13;;;25.20;56.90;;;;;;7684792;23;20017;-71
2022/05/23 04:00:33;;;;;;;21.92;6.07;;;25.10;57.00;;;;;;7684555;23;20016;-71
2022/05/23 04:03:35;;;;;;;11.85;5.78;;;25.00;57.10;;;;;;7683811;23;20071;-70
2022/05/23 04:06:38;;;;;;;12.48;5.47;;;24.90;57.30;;;;;;7710880;23;20017;-70
2022/05/23 04:09:42;;;;;;;18.17;6.38;;;24.90;57.60;;;;;;7684061;23;20482;-70
2022/05/23 04:12:43;;;;;;;12.35;5.18;;;24.90;57.60;;;;;;7659229;23;20445;-70
2022/05/23 04:15:45;;;;;;;15.65;5.70;;;24.90;57.60;;;;;;7658844;23;20012;-71
2022/05/23 04:18:46;;;;;;;15.13;5.95;;;24.90;57.50;;;;;;7683747;23;20008;-71
2022/05/23 04:21:47;;;;;;;18.35;6.57;;;24.90;57.50;;;;;;7706860;23;20104;-71
2022/05/23 04:24:56;;;;;;;15.25;5.63;;;24.90;57.50;;;;;;7660656;23;20331;-71
2022/05/23 04:27:57;;;;;;;21.15;5.75;;;24.90;57.40;;;;;;7658322;23;20051;-71
2022/05/23 04:30:58;;;;;;;14.20;5.90;;;24.80;57.40;;;;;;7683857;23;20353;-71
2022/05/23 04:37:35;;;;;;;12.27;6.15;;;24.90;57.60;;;;;;7683545;23;20027;-71
2022/05/23 04:40:36;;;;;;;17.75;6.03;;;24.90;57.60;;;;;;7683963;23;20017;-70
2022/05/23 04:43:38;;;;;;;14.60;5.85;;;24.90;57.50;;;;;;7683999;23;20025;-73
2022/05/23 04:49:41;;;;;;;11.13;5.57;;;24.90;57.60;;;;;;7682387;23;20036;-71
2022/05/23 04:50:03;;;;;;;11.60;5.90;;;24.80;57.60;;;;;;7679209;23;20059;-71
2022/05/23 04:53:30;;;;;;;14.07;6.03;;;24.80;57.60;;;;;;7698556;23;20017;-71
2022/05/23 04:56:45;;;;;;;11.60;6.18;;;24.80;57.80;;;;;;7682235;23;20436;-70
2022/05/23 04:59:52;;;;;;;19.23;6.28;;;24.80;57.90;;;;;;7667582;23;20013;-72
2022/05/23 05:02:59;;;;;;;20.92;6.88;;;24.80;58.10;;;;;;7681947;23;20019;-73
2022/05/23 05:06:12;;;;;;;13.27;6.38;;;24.80;58.30;;;;;;7682152;23;20012;-74
2022/05/23 05:09:13;;;;;;;12.50;5.85;;;24.80;58.50;;;;;;7681208;23;20021;-72
2022/05/23 05:12:14;;;;;;;14.38;6.10;;;24.80;58.60;;;;;;7657685;23;20016;-73
2022/05/23 05:15:18;;;;;;;20.88;6.72;;;24.80;58.60;;;;;;7680466;23;20096;-73
2022/05/23 05:18:19;;;;;;;12.73;6.20;;;24.80;58.70;;;;;;7682238;23;20027;-71
2022/05/23 05:21:26;;;;;;;12.90;5.67;;;24.90;58.50;;;;;;7657650;23;20035;-71
2022/05/23 05:24:46;;;;;;;14.07;5.32;;;24.90;58.30;;;;;;7666567;23;20028;-73
2022/05/23 05:28:08;;;;;;;12.50;5.72;;;25.00;58.20;;;;;;7682803;23;20083;-72
2022/05/23 05:31:17;;;;;;;18.30;5.90;;;25.20;57.80;;;;;;7681820;23;20036;-74
2022/05/23 05:34:44;;;;;;;9.98;5.35;;;25.30;57.50;;;;;;7681058;23;20496;-72
2022/05/23 05:38:01;;;;;;;15.38;6.63;;;25.40;57.30;;;;;;7682044;23;20407;-74
2022/05/23 05:41:13;;;;;;;13.23;5.38;;;25.60;56.90;;;;;;7681080;23;20016;-73
2022/05/23 05:44:19;;;;;;;13.70;5.30;;;25.80;56.50;;;;;;7654546;23;20096;-72
2022/05/23 05:47:22;;;;;;;11.70;5.30;;;25.90;56.10;;;;;;7679845;23;20024;-73
2022/05/23 05:50:31;;;;;;;13.70;5.15;;;26.00;55.80;;;;;;7680624;23;20436;-71
2022/05/23 05:53:52;;;;;;;15.98;5.45;;;26.00;55.60;;;;;;7705127;23;20074;-71
2022/05/23 05:57:11;;;;;;;17.20;5.22;;;26.20;55.30;;;;;;7682169;23;20365;-71
2022/05/23 06:00:13;;;;;;;10.82;4.72;;;26.30;55.10;;;;;;7683523;23;20012;-72
2022/05/23 06:03:19;;;;;;;16.02;5.43;;;26.30;54.80;;;;;;7682947;23;20445;-72
2022/05/23 06:13:37;;;;;;;19.75;5.97;;;26.40;54.00;;;;;;7682390;23;20009;-70
2022/05/23 06:16:40;;;;;;;9.30;5.00;;;26.50;53.80;;;;;;7657123;23;20016;-71
2022/05/23 06:19:50;;;;;;;21.25;5.53;;;26.50;53.60;;;;;;7658018;23;20059;-72
2022/05/23 06:22:58;;;;;;;18.17;5.63;;;26.40;53.60;;;;;;7682815;23;20024;-71
2022/05/23 06:25:59;;;;;;;19.30;5.40;;;26.40;53.50;;;;;;7658545;23;20067;-71
2022/05/23 06:29:20;;;;;;;14.70;5.05;;;26.40;53.30;;;;;;7709353;23;20012;-71
2022/05/23 06:32:22;;;;;;;9.88;4.90;;;26.40;53.30;;;;;;7658093;23;20087;-71
2022/05/23 06:35:23;;;;;;;10.50;5.82;;;26.40;53.30;;;;;;7682778;23;20016;-71
2022/05/23 06:38:27;;;;;;;12.13;5.18;;;26.40;53.30;;;;;;7683510;23;20013;-72
2022/05/23 06:41:39;;;;;;;14.57;4.85;;;26.40;53.10;;;;;;7706989;23;20019;-71
2022/05/23 06:45:04;;;;;;;21.80;4.95;;;26.50;53.00;;;;;;7687164;23;20087;-71
2022/05/23 06:48:24;;;;;;;12.65;5.03;;;26.60;52.90;;;;;;7685650;23;20104;-71
2022/05/23 06:51:40;;;;;;;13.75;5.25;;;26.60;52.70;;;;;;7660071;23;20024;-71
2022/05/23 06:54:42;;;;;;;11.70;5.35;;;26.70;52.60;;;;;;7682523;23;20129;-71
2022/05/23 06:57:47;;;;;;;9.93;5.30;;;26.80;52.50;;;;;;7681312;23;20078;-70
2022/05/23 07:00:50;;;;;;;10.82;5.43;;;26.80;52.40;;;;;;7708472;23;20043;-71
2022/05/23 07:03:54;;;;;;;12.70;6.13;;;26.80;52.40;;;;;;7682893;23;20012;-71
2022/05/23 07:13:42;;;;;;;16.55;6.70;;;26.90;52.40;;;;;;7680541;23;20067;-71
2022/05/23 07:16:42;;;;;;;17.77;5.70;;;27.00;52.30;;;;;;7642254;23;20087;-72
2022/05/23 07:19:44;;;;;;;11.35;4.97;;;27.10;52.00;;;;;;7681252;23;20364;-71
2022/05/23 07:22:47;;;;;;;13.63;5.40;;;27.30;52.00;;;;;;7682425;23;20043;-72
2022/05/23 07:25:49;;;;;;;20.65;5.35;;;27.20;51.70;;;;;;7682474;23;20112;-71
2022/05/23 07:29:10;;;;;;;10.57;4.90;;;27.30;51.60;;;;;;7685470;23;20016;-71
2022/05/23 07:32:12;;;;;;;19.95;7.25;;;27.40;51.40;;;;;;7682751;23;20055;-71
2022/05/23 07:35:13;;;;;;;12.48;5.15;;;27.40;51.30;;;;;;7656722;23;20020;-71
2022/05/23 07:38:14;;;;;;;21.05;6.30;;;27.50;51.00;;;;;;7681282;23;20016;-71
2022/05/23 07:41:17;;;;;;;9.27;5.07;;;27.60;50.70;;;;;;7682426;23;20017;-72
2022/05/23 07:44:18;;;;;;;12.10;4.68;;;27.70;50.40;;;;;;7682849;23;20021;-71
2022/05/23 07:47:19;;;;;;;12.82;4.22;;;27.70;50.30;;;;;;7681072;23;20016;-73
2022/05/23 07:50:38;;;;;;;15.05;4.85;;;27.70;50.10;;;;;;7680969;23;20051;-72
2022/05/23 08:00:32;;;;;;;11.82;4.35;;;27.80;49.80;;;;;;7707640;23;20063;-72
2022/05/23 08:03:40;;;;;;;10.80;4.18;;;27.70;49.80;;;;;;7681681;23;20035;-71
2022/05/23 08:07:09;;;;;;;12.50;4.35;;;27.90;49.70;;;;;;7699269;23;20032;-71
2022/05/23 08:10:15;;;;;;;;;;;28.00;49.10;;;;;;7659228;23;20041;-71
2022/05/23 08:13:16;;;;;;;16.63;4.57;;;28.10;48.80;;;;;;7657178;23;19916;-72
2022/05/23 08:16:17;;;;;;;15.02;4.20;;;28.30;48.50;;;;;;7656925;23;20020;-70
2022/05/23 08:19:20;;;;;;;8.27;4.15;;;28.50;48.10;;;;;;7681519;23;20427;-71
2022/05/23 08:22:22;;;;;;;10.00;4.32;;;28.90;47.70;;;;;;7657375;23;20411;-70
2022/05/23 08:25:38;;;;;;;7.60;3.90;;;29.20;47.00;;;;;;7664707;23;20021;-73
2022/05/23 08:28:40;;;;;;;12.10;4.13;;;29.40;46.50;;;;;;7682466;23;20082;-71
2022/05/23 08:31:42;;;;;;;26.42;4.75;;;29.50;46.20;;;;;;7682927;23;20119;-72
2022/05/23 08:34:49;;;;;;;;;;;29.60;46.10;;;;;;7659943;23;20490;-71
2022/05/23 08:37:51;;;;;;;13.75;4.85;;;29.50;45.90;;;;;;7658796;23;19919;-71
2022/05/23 08:41:15;;;;;;;10.75;4.35;;;29.40;46.50;;;;;;7678270;23;20099;-72
2022/05/23 08:44:48;;;;;;;28.15;4.80;;;29.20;46.00;;;;;;7680888;23;20024;-71
2022/05/23 08:48:17;;;;;;;10.63;5.20;;;28.90;46.10;;;;;;7678964;23;20024;-71
2022/05/23 08:51:48;;;;;;;15.45;5.30;;;28.70;46.40;;;;;;7655549;23;20428;-70
2022/05/23 08:55:24;;;;;;;16.80;4.60;;;28.70;46.40;;;;;;7680553;23;20454;-70
2022/05/23 08:58:57;;;;;;;8.85;4.63;;;28.60;46.30;;;;;;7482953;23;20022;-72
2022/05/23 09:02:10;;;;;;;11.73;4.22;;;28.60;46.00;;;;;;7520782;23;20078;-72
2022/05/23 09:05:29;;;;;;;21.15;4.07;;;28.50;46.00;;;;;;7498505;23;20042;-71
2022/05/23 09:08:35;;;;;;;8.95;4.32;;;28.50;45.70;;;;;;7524714;23;20026;-71
2022/05/23 09:11:52;;;;;;;13.23;4.18;;;28.40;45.50;;;;;;7524432;23;20031;-70
2022/05/23 09:14:54;;;;;;;7.22;3.35;;;28.40;45.10;;;;;;7522311;23;20030;-71
2022/05/23 09:17:58;;;;;;;10.20;3.40;;;28.60;44.70;;;;;;7499836;23;20167;-71
2022/05/23 09:21:04;;;;;;;8.23;3.70;;;28.60;44.00;;;;;;7498827;23;20166;-71
2022/05/23 09:24:06;;;;;;;15.75;3.33;;;28.60;43.60;;;;;;7522854;23;20061;-71
2022/05/23 09:27:25;;;;;;;17.05;4.22;;;28.60;43.40;;;;;;7498858;23;20097;-72
2022/05/23 09:34:57;;;;;;;10.18;3.45;;;28.90;42.80;;;;;;7607590;23;20088;-71
2022/05/23 09:38:15;;;;;;;13.35;3.17;;;29.00;42.30;;;;;;7712702;23;20028;-71
2022/05/23 09:48:15;;;;;;;13.50;3.42;;;29.40;41.70;;;;;;7709239;23;20016;-71
2022/05/23 09:51:16;;;;;;;7.90;3.30;;;29.40;41.30;;;;;;7708384;23;20021;-72
2022/05/23 09:54:26;;;;;;;11.25;3.78;;;29.40;40.90;;;;;;7681405;23;20032;-72
2022/05/23 09:57:40;;;;;;;6.38;3.28;;;29.30;40.60;;;;;;7656099;23;20068;-71
2022/05/23 10:01:04;;;;;;;16.33;3.25;;;29.20;40.60;;;;;;7683167;23;20016;-72
2022/05/23 10:04:15;;;;;;;15.18;3.15;;;29.20;40.50;;;;;;7657333;23;20012;-71
2022/05/23 10:07:21;;;;;;;7.80;3.70;;;29.40;40.20;;;;;;7658686;23;20051;-72
2022/05/23 10:10:34;;;;;;;5.72;2.83;;;29.60;39.90;;;;;;7682424;23;20439;-72
2022/05/23 10:13:40;;;;;;;8.57;2.85;;;29.70;39.50;;;;;;7682238;23;20016;-71
2022/05/23 10:16:48;;;;;;;6.50;2.92;;;29.90;39.20;;;;;;7656187;23;20020;-72
2022/05/23 10:19:49;;;;;;;;;;;30.10;38.90;;;;;;7708098;23;20013;-70
2022/05/23 10:22:57;;;;;;;5.80;3.28;;;30.20;38.70;;;;;;7682285;23;19911;-72
2022/05/23 10:26:09;;;;;;;;;;;30.30;38.30;;;;;;7682869;23;20008;-71
2022/05/23 10:29:35;;;;;;;5.10;2.67;;;30.30;38.20;;;;;;7682857;23;19912;-71
2022/05/23 10:32:46;;;;;;;11.45;3.08;;;30.30;38.20;;;;;;7681970;23;20036;-70
2022/05/23 10:36:14;;;;;;;4.65;2.70;;;30.40;38.00;;;;;;7692313;23;20028;-72
2022/05/23 10:42:49;;;;;;;7.38;3.05;;;30.60;37.30;;;;;;7709129;23;20092;-72
2022/05/23 10:46:01;;;;;;;8.75;2.88;;;30.60;37.10;;;;;;7708855;23;20013;-72
2022/05/23 10:49:37;;;;;;;11.95;3.22;;;30.70;36.70;;;;;;7657410;23;20008;-71
2022/05/23 10:53:03;;;;;;;10.98;2.75;;;30.80;36.50;;;;;;7705845;23;20450;-71
2022/05/23 10:56:16;;;;;;;12.73;3.40;;;30.80;36.30;;;;;;7707210;23;20017;-72
2022/05/23 10:59:29;;;;;;;8.13;2.80;;;30.80;36.40;;;;;;7691433;23;20013;-73
2022/05/23 11:02:35;;;;;;;9.15;2.85;;;31.10;36.00;;;;;;7666188;23;20009;-73
2022/05/23 11:05:58;;;;;;;9.90;2.90;;;31.60;35.20;;;;;;7680526;23;20016;-71
2022/05/23 11:09:11;;;;;;;9.50;2.63;;;32.30;34.00;;;;;;7702891;23;20036;-73
2022/05/23 11:12:33;;;;;;;8.20;2.60;;;32.50;33.10;;;;;;7652558;23;20399;-73
2022/05/23 11:15:45;;;;;;;5.70;2.63;;;32.90;32.30;;;;;;7660202;23;20020;-72
2022/05/23 11:18:55;;;;;;;21.83;3.17;;;33.10;32.00;;;;;;7678375;23;20017;-72
2022/05/23 11:22:14;;;;;;;6.88;2.38;;;33.50;31.00;;;;;;7679099;23;20432;-73
2022/05/23 11:25:31;;;;;;;5.60;2.80;;;33.80;30.50;;;;;;7669333;23;20405;-73
2022/05/23 11:35:59;;;;;;;7.53;2.42;;;34.70;29.70;;;;;;7679129;23;20040;-72
2022/05/23 11:39:00;;;;;;;11.80;2.67;;;34.90;29.20;;;;;;7655071;23;20015;-73
2022/05/23 11:42:13;;;;;;;8.95;2.95;;;34.90;29.00;;;;;;7679084;23;20012;-73
2022/05/23 11:48:58;;;;;;;14.43;2.67;;;34.40;29.30;;;;;;7694378;23;20017;-71
2022/05/23 11:52:14;;;;;;;13.18;3.05;;;34.10;29.30;;;;;;7657579;23;20013;-71
2022/05/23 11:55:54;;;;;;;24.70;3.00;;;33.70;29.80;;;;;;7707784;23;20076;-73
2022/05/23 11:58:56;;;;;;;12.27;2.92;;;33.40;30.00;;;;;;7521957;23;20071;-73
2022/05/23 12:02:12;;;;;;;15.60;3.25;;;33.00;30.50;;;;;;7522482;23;20312;-72
2022/05/23 12:05:29;;;;;;;37.30;3.55;;;32.60;31.10;;;;;;7522734;23;20419;-72
2022/05/23 12:08:32;;;;;;;6.90;2.77;;;32.50;31.60;;;;;;7521142;23;20019;-73
2022/05/23 12:11:43;;;;;;;13.07;2.85;;;32.30;31.80;;;;;;7520698;23;20017;-71
2022/05/23 12:19:20;;;;;;;5.95;2.80;;;32.30;32.10;;;;;;7522345;23;20023;-71
2022/05/23 12:22:26;;;;;;;12.80;3.10;;;32.50;32.10;;;;;;7520986;23;20033;-70
2022/05/23 12:25:27;;;;;;;7.50;2.85;;;32.50;32.20;;;;;;7501873;23;20011;-71
2022/05/23 12:28:41;;;;;;;9.98;2.90;;;32.30;32.30;;;;;;7502051;23;20011;-71
2022/05/23 12:32:05;;;;;;;12.15;2.83;;;32.30;32.60;;;;;;7500824;23;20019;-71
2022/05/23 12:35:07;;;;;;;9.57;3.25;;;32.50;32.20;;;;;;7578436;23;20103;-72
2022/05/23 12:38:43;;;;;;;8.80;2.70;;;33.30;31.50;;;;;;7671074;23;20024;-71
2022/05/23 12:41:53;;;;;;;11.00;3.05;;;34.10;30.30;;;;;;7608916;23;20084;-71
2022/05/23 12:45:13;;;;;;;29.08;4.20;;;34.40;29.40;;;;;;7645775;23;20076;-71
2022/05/23 12:48:37;;;;;;;10.57;2.80;;;34.60;29.30;;;;;;7610526;23;20010;-71
2022/05/23 12:52:35;;;;;;;12.48;2.88;;;35.00;28.80;;;;;;7620270;23;20010;-70
2022/05/23 12:55:43;;;;;;;8.75;2.90;;;35.20;28.50;;;;;;7633348;23;20025;-71
2022/05/23 12:59:08;;;;;;;9.98;3.40;;;35.00;28.50;;;;;;7612918;23;20013;-71
2022/05/23 13:02:18;;;;;;;13.13;3.30;;;34.60;28.80;;;;;;7636806;23;20017;-71
2022/05/23 13:05:45;;;;;;;19.45;2.92;;;34.00;29.30;;;;;;7665198;23;20029;-71
2022/05/23 13:08:50;;;;;;;6.50;2.75;;;33.80;29.50;;;;;;7673998;23;20028;-71
2022/05/23 13:11:58;;;;;;;9.68;2.42;;;33.30;29.90;;;;;;7657936;23;20021;-71
2022/05/23 13:15:00;;;;;;;7.95;2.80;;;32.90;30.50;;;;;;7619686;23;20017;-71
2022/05/23 13:24:57;;;;;;;6.30;3.00;;;35.40;28.20;;;;;;7639335;23;20025;-72
2022/05/23 13:27:58;;;;;;;5.65;2.55;;;36.00;27.20;;;;;;7649611;23;20016;-71
2022/05/23 13:31:04;;;;;;;6.25;2.67;;;35.60;27.50;;;;;;7676236;23;20027;-71
2022/05/23 13:34:16;;;;;;;4.82;2.40;;;35.90;27.10;;;;;;7644467;23;20029;-71
2022/05/23 13:37:29;;;;;;;6.43;2.38;;;35.40;27.20;;;;;;7648920;23;20021;-71
2022/05/23 13:45:06;;;;;;;5.13;2.60;;;34.40;28.40;;;;;;7676767;23;20514;-71
2022/05/23 13:48:14;;;;;;;10.50;3.83;;;34.70;28.30;;;;;;7675519;23;20012;-71
2022/05/23 13:51:44;;;;;;;5.35;2.80;;;34.80;28.00;;;;;;7677248;23;20449;-72
2022/05/23 13:54:54;;;;;;;6.68;3.05;;;35.50;27.60;;;;;;7650233;23;20013;-71
2022/05/23 13:57:58;;;;;;;9.82;2.83;;;37.10;26.30;;;;;;7676168;23;20013;-71
2022/05/23 14:01:17;;;;;;;11.05;2.92;;;38.40;25.10;;;;;;7676893;23;20013;-71
2022/05/23 14:04:22;;;;;;;7.85;2.88;;;38.40;24.80;;;;;;7607445;23;20029;-71
2022/05/23 14:07:27;;;;;;;8.27;2.97;;;39.00;24.20;;;;;;7671991;23;20017;-71
2022/05/23 14:10:29;;;;;;;12.95;2.92;;;39.50;23.80;;;;;;7677750;23;20025;-71
2022/05/23 14:13:31;;;;;;;4.32;2.67;;;40.00;23.30;;;;;;7650818;23;20036;-71
2022/05/23 14:16:32;;;;;;;11.45;2.85;;;40.20;23.10;;;;;;7676428;23;20024;-72
2022/05/23 14:20:18;;;;;;;6.95;2.67;;;40.50;22.70;;;;;;7680168;23;20054;-71
2022/05/23 14:23:23;;;;;;;7.57;2.80;;;40.70;22.70;;;;;;7639923;23;20020;-71
2022/05/23 14:26:24;;;;;;;4.35;2.70;;;41.00;22.30;;;;;;7684180;23;20016;-71
2022/05/23 14:29:25;;;;;;;6.32;2.78;;;40.50;22.40;;;;;;7684089;23;20071;-71
2022/05/23 14:32:26;;;;;;;12.02;2.97;;;39.30;23.40;;;;;;7682995;23;20021;-71
2022/05/23 14:35:52;;;;;;;6.63;3.47;;;38.20;24.40;;;;;;7708564;23;20300;-71
2022/05/23 14:38:58;;;;;;;7.75;2.97;;;37.50;25.20;;;;;;7463471;23;20011;-71
2022/05/23 14:42:20;;;;;;;16.30;2.85;;;37.20;25.60;;;;;;7454075;23;20012;-71
2022/05/23 14:45:21;;;;;;;4.70;2.80;;;37.20;25.60;;;;;;7444124;23;20027;-72
2022/05/23 14:48:32;;;;;;;9.65;3.45;;;37.50;25.50;;;;;;7490872;23;20015;-71
2022/05/23 14:51:41;;;;;;;12.32;3.20;;;38.00;25.00;;;;;;7467952;23;20020;-72
2022/05/23 15:01:41;;;;;;;9.77;3.38;;;35.90;27.40;;;;;;7486446;23;20015;-71
2022/05/23 15:04:42;;;;;;;9.00;3.33;;;35.00;27.80;;;;;;7464997;23;20026;-72
2022/05/23 15:07:43;;;;;;;6.93;3.35;;;34.40;28.60;;;;;;7464383;23;20015;-71
2022/05/23 15:10:44;;;;;;;9.00;3.67;;;33.80;29.20;;;;;;7462336;23;20034;-71
2022/05/23 15:13:47;;;;;;;9.05;3.72;;;33.30;29.70;;;;;;7487877;23;20346;-71
2022/05/23 15:16:48;;;;;;;9.93;3.00;;;33.00;30.00;;;;;;7665720;23;20016;-72
2022/05/23 15:19:50;;;;;;;12.43;3.42;;;32.80;30.40;;;;;;7657027;23;20013;-70
2022/05/23 15:22:52;;;;;;;9.13;3.38;;;32.60;30.80;;;;;;7683059;23;20439;-71
2022/05/23 15:26:01;;;;;;;6.82;3.90;;;32.30;31.20;;;;;;7706349;23;20083;-72
2022/05/23 15:29:03;;;;;;;10.43;3.80;;;32.20;31.60;;;;;;7709555;23;20013;-71
2022/05/23 15:32:06;;;;;;;4.82;3.03;;;32.10;31.80;;;;;;7679114;23;20058;-71
2022/05/23 15:35:10;;;;;;;14.20;3.25;;;32.10;31.80;;;;;;7681695;23;20028;-73
2022/05/23 15:38:11;;;;;;;6.38;3.95;;;32.10;31.90;;;;;;7708959;23;20313;-71
2022/05/23 15:41:14;;;;;;;10.73;3.63;;;32.00;32.00;;;;;;7709087;23;20021;-71
2022/05/23 15:44:18;;;;;;;9.65;3.20;;;31.90;32.10;;;;;;7681868;23;20017;-70
2022/05/23 15:47:24;;;;;;;8.82;3.30;;;31.90;32.40;;;;;;7706495;23;20071;-71
2022/05/23 15:50:25;;;;;;;4.53;3.20;;;31.80;32.50;;;;;;7657468;23;20039;-71
2022/05/23 15:53:26;;;;;;;6.80;3.70;;;31.70;32.60;;;;;;7681945;23;20048;-72
2022/05/23 15:56:27;;;;;;;5.90;3.50;;;31.70;32.80;;;;;;7682196;23;20367;-71
2022/05/23 15:59:29;;;;;;;10.35;3.75;;;31.60;33.10;;;;;;7682631;23;20027;-72
2022/05/23 16:02:30;;;;;;;7.38;3.20;;;31.50;33.20;;;;;;7709074;23;20012;-71
2022/05/23 16:05:32;;;;;;;12.75;4.00;;;31.50;33.40;;;;;;7656209;23;20021;-71
2022/05/23 16:08:34;;;;;;;5.78;3.70;;;31.50;33.50;;;;;;7669564;23;20427;-72
2022/05/23 16:11:50;;;;;;;5.07;3.60;;;31.60;33.60;;;;;;7709267;23;20009;-71
2022/05/23 16:14:51;;;;;;;7.63;3.78;;;31.70;33.70;;;;;;7683211;23;20024;-71
2022/05/23 16:17:54;;;;;;;7.15;3.85;;;32.50;32.70;;;;;;7685197;23;20036;-71
2022/05/23 16:20:55;;;;;;;12.82;3.58;;;33.50;32.00;;;;;;7711128;23;20079;-71
2022/05/23 16:23:58;;;;;;;6.75;3.65;;;34.30;30.40;;;;;;7684250;23;20012;-71
2022/05/23 16:26:59;;;;;;;7.88;3.45;;;34.80;29.80;;;;;;7707516;23;20302;-73
2022/05/23 16:30:00;;;;;;;9.27;3.72;;;35.00;29.60;;;;;;7659279;23;20008;-72
2022/05/23 16:36:38;;;;;;;9.52;3.30;;;35.30;29.30;;;;;;7708436;23;20031;-71
2022/05/23 16:39:39;;;;;;;8.23;4.03;;;34.90;29.70;;;;;;7707984;23;20017;-71
2022/05/23 16:42:40;;;;;;;14.55;3.45;;;34.20;30.20;;;;;;7708575;23;20068;-71
2022/05/23 16:45:41;;;;;;;13.65;3.67;;;33.80;30.90;;;;;;7681560;23;20020;-70
2022/05/23 16:48:42;;;;;;;10.43;3.65;;;33.40;31.30;;;;;;7658578;23;20012;-70
2022/05/23 16:51:44;;;;;;;10.45;3.33;;;33.00;31.90;;;;;;7682669;23;20015;-71
2022/05/23 16:54:45;;;;;;;7.10;3.08;;;32.50;32.50;;;;;;7657885;23;20148;-70
2022/05/23 16:57:46;;;;;;;8.95;3.10;;;32.00;33.20;;;;;;7658898;23;20012;-70
2022/05/23 17:00:47;;;;;;;7.00;3.20;;;31.60;33.90;;;;;;7683579;23;20268;-70
2022/05/23 17:03:53;;;;;;;11.07;3.13;;;31.20;34.50;;;;;;7707236;23;20134;-70
2022/05/23 17:06:54;;;;;;;4.93;2.55;;;30.90;35.10;;;;;;7708756;23;20328;-71
2022/05/23 17:09:55;;;;;;;13.48;2.95;;;30.70;35.40;;;;;;7683658;23;20012;-71
2022/05/23 17:12:57;;;;;;;9.48;3.38;;;30.60;35.90;;;;;;7708160;23;20046;-70
2022/05/23 17:15:58;;;;;;;9.23;3.10;;;30.40;36.20;;;;;;7709360;23;20064;-72
2022/05/23 17:18:59;;;;;;;6.20;2.72;;;30.30;36.60;;;;;;7682288;23;20013;-72
2022/05/23 17:22:04;;;;;;;11.68;3.25;;;30.10;37.40;;;;;;7709581;23;20101;-71
2022/05/23 17:25:05;;;;;;;5.63;2.92;;;30.00;37.20;;;;;;7660203;23;20016;-71
2022/05/23 17:28:07;;;;;;;11.63;3.03;;;29.80;37.40;;;;;;7684514;23;20024;-73
2022/05/23 17:31:09;;;;;;;5.82;3.47;;;29.80;37.70;;;;;;7711411;23;20021;-72
2022/05/23 17:34:10;;;;;;;13.15;3.15;;;29.70;38.00;;;;;;7685270;23;20036;-71
2022/05/23 17:37:11;;;;;;;6.78;3.08;;;29.60;38.10;;;;;;7711114;23;20020;-72
2022/05/23 17:40:14;;;;;;;5.57;3.25;;;29.50;38.10;;;;;;7684206;23;20021;-73
2022/05/23 17:43:15;;;;;;;13.02;3.75;;;29.50;38.20;;;;;;7710054;23;20016;-73